x

East Gulf - 208 Mn West Of Naples, Fl (42003) Wave Buoy

1:50pm - Sun 28th Aug 2016 All times are EDT. -4 hours from GMT.

  • Sig Wave height 2.6ft
  • Swell Direction
  • Peak Period 5s
  • Average Period 4s
  • Wind
    13mph, 16mph gusts
  • Sea Temp 86°f
  • Air Temp 85°f
  • Sea Pressure 1013.6mb
  • East Gulf - 208 Mn West Of Naples, Fl
  • East Gulf - 208 Mn West Of Naples, Fl

More Historic Weather Station data

Upgrade to MSW Pro to gain access to the past 30 days of data for over 8000 Wavebouys and Weather Stations around the globe.

Join Pro

Comparision Forecast

View Surf forecast
   
Sun 08/28 1:50pm 2.5ft 5s 4s 13 16 mph 1013.6mb 86f 85f
12:50pm 2.5ft 6s 4s 13 16 mph 1013.9mb 86f 85f
11:50am 2.5ft 5s 4s 11 16 mph 1014.5mb 86f 85f
10:50am 2.5ft 5s 4s 13 16 mph 1014.6mb 86f 82f
9:50am 2.5ft 6s 4s 13 16 mph 1014.4mb 86f 85f
8:50am 2.5ft 6s 4s 11 13 mph 1013.9mb 86f 84f
7:50am 2.5ft 5s 4s 13 16 mph 1013.5mb 86f 84f
6:50am 3ft 5s 4s 13 16 mph 1012.7mb 86f 84f
5:50am 3ft 5s 4s 16 18 mph 1012.7mb 86f 84f
4:50am 3ft 6s 4s 18 20 mph 1012.4mb 86f 84f
3:50am 3ft 6s 4s 13 18 mph 1012.7mb 86f 84f
2:50am 3ft 6s 4s 18 20 mph 1012.5mb 86f 84f
1:50am 2.5ft 5s 4s 16 18 mph 1012.7mb 86f 84f
12:50am 2.5ft 4s 4s 16 18 mph 1012.8mb 86f 82f
Sat 08/27 11:50pm 2.5ft 5s 3s 11
mph
1012.7mb 86f 81f
10:50pm 2ft 5s 4s 13 18 mph 1013.6mb 86f 84f
9:50pm 2ft 4s 4s 11 13 mph 1013.6mb 85f 83f
8:50pm 2ft 5s 4s 13 16 mph 1013.5mb 85f 83f
7:50pm 2.5ft 5s 4s 13 16 mph 1013.1mb 86f 82f
6:50pm 2.5ft 5s 4s 11 13 mph 1012.9mb 86f 82f
5:50pm 2.5ft 5s 4s 13 16 mph 1012.4mb 86f 81f
4:50pm 2.5ft 5s 4s 13 16 mph 1012.6mb 86f 80f
3:50pm 2.5ft 5s 4s 4 7 mph 1013.5mb 86f 82f
2:50pm 2.5ft 6s 5s 7 9 mph 1013.5mb 85f 81f
1:50pm 2.5ft 5s 4s 9 11 mph 1014.3mb 85f 81f
12:50pm 2.5ft 6s 4s 11 13 mph 1014.4mb 86f 80f
11:50am 2.5ft 6s 4s 11 16 mph 1014.9mb 86f 79f
10:50am 3ft 6s 4s 22 29 mph 1014mb 86f 80f
9:50am 3ft 6s 4s 16 18 mph 1013.6mb 86f 84f
8:50am 3ft 6s 4s 16 18 mph 1013.7mb 86f 84f
7:50am 3ft 6s 4s 16 18 mph 1013.5mb 86f 83f
6:50am 3.5ft 6s 4s 16 18 mph 1012.8mb 86f 83f
5:50am 3.5ft 5s 4s 16 18 mph 1012.3mb 86f 84f
4:50am 3.5ft 5s 4s 16 18 mph 1012.2mb 86f 83f
3:50am 3.5ft 5s 4s 16 18 mph 1012.4mb 86f 84f
2:50am 3.5ft 5s 4s 16 20 mph 1012.9mb 86f 85f
1:50am 3.5ft 5s 4s 18 22 mph 1013.5mb 86f 83f
12:50am 3ft 5s 4s 22 31 mph 1013.8mb 86f 84f
Fri 08/26 11:50pm 2.5ft 6s 4s 18 22 mph 1014.4mb 86f 83f
10:50pm 3ft 6s 4s 13 16 mph 1014.7mb 86f 83f
9:50pm 3ft 6s 4s 18 20 mph 1013.9mb 86f 82f
8:50pm 3ft 6s 4s 16 18 mph 1013.5mb 86f 82f
7:50pm 3ft 6s 4s 18 20 mph 1013.5mb 86f 81f
6:50pm 3ft 6s 4s 13 16 mph 1013.2mb 86f 82f
5:50pm 3.5ft 6s 5s 16 18 mph 1013.4mb 86f 81f
4:50pm 3ft 6s 5s 9 11 mph 1014.1mb 86f 81f
3:50pm 3.5ft 6s 5s 2 4 mph 1014.4mb 86f 81f
2:50pm 3.5ft 6s 5s 2 7 mph 1015mb 86f 82f
1:50pm 4ft 6s 5s 4 7 mph 1015mb 86f 82f
12:50pm 3.5ft 6s 4s 7 9 mph 1015.4mb 86f 80f
11:50am 3.5ft 6s 4s 18 22 mph 1015.4mb 86f 79f
10:50am 3ft 6s 4s 13 16 mph 1015.3mb 86f 85f
9:50am 3.5ft 6s 5s 13 16 mph 1014.9mb 86f 85f
8:50am 3.5ft 6s 5s 11 13 mph 1014.6mb 85f 85f
7:50am 3.5ft 6s 5s 16 18 mph 1014.7mb 85f 84f
6:50am 4ft 6s 5s 16 18 mph 1014.2mb 85f 84f
5:50am 4.5ft 6s 5s 13 16 mph 1013.7mb 85f 83f
4:50am 4ft 6s 4s 16 20 mph 1013.8mb 85f 84f
3:50am 4ft 6s 4s 16 18 mph 1013.8mb 85f 83f
2:50am 4.5ft 6s 4s 22 27 mph 1013.7mb 85f 83f
1:50am 4ft 5s 4s 20 22 mph 1013.9mb 85f 83f
12:50am 4.5ft 6s 5s 18 22 mph 1014.8mb 85f 82f
Thu 08/25 11:50pm 5ft 6s 5s 13 18 mph 1015.5mb 85f 81f
10:50pm 4.5ft 6s 5s 18 22 mph 1016.2mb 86f 78f
9:50pm 4.5ft 6s 5s 4 7 mph 1016mb 86f 81f
8:50pm 4.5ft 6s 5s 9 11 mph 1015.3mb 86f 80f
7:50pm 4ft 6s 5s 13 20 mph 1014.9mb 86f 80f
6:50pm 4.5ft 6s 5s 22 27 mph 1014.5mb 86f 80f
5:50pm 3.5ft 7s 5s 11 13 mph 1014mb 86f 84f
4:50pm 3.5ft 6s 5s 13 16 mph 1014.2mb 86f 85f
3:50pm 4ft 6s 5s 13 16 mph 1014.4mb 86f 84f
2:50pm 4ft 7s 5s 16 22 mph 1015.2mb 86f 84f
1:50pm 4.5ft 6s 5s 16 20 mph 1015.8mb 86f 84f
12:50pm 4.5ft 6s 5s 13 18 mph 1016.5mb 86f 85f
11:50am 4.5ft 6s 5s 13 16 mph 1016.8mb 86f 85f
10:50am 4ft 6s 5s 13 18 mph 1016.5mb 85f 85f
9:50am 3.5ft 5s 5s 16 18 mph 1016.3mb 85f 85f
8:50am 4ft 6s 5s 13 16 mph 1016.2mb 85f 85f
7:50am 4.5ft 5s 5s 18
mph
1015.9mb 85f 85f
6:50am 4.5ft 5s 4s 18 20 mph 1015.6mb 85f 85f
5:50am 4ft 5s 4s 20 22 mph 1015.2mb 85f 85f
4:50am 3.5ft 5s 4s 22 27 mph 1015.3mb 85f 84f
3:50am 3ft 5s 4s 18 22 mph 1015.5mb 85f 85f
2:50am 2.5ft 6s 4s 18 20 mph 1015.9mb 86f 85f
1:50am 2.5ft 5s 4s 16 18 mph 1016.6mb 86f 86f
12:50am 3ft 6s 4s 13 16 mph 1017mb 86f 86f
Wed 08/24 11:50pm 2.5ft 5s 4s 13 16 mph 1017.3mb 86f 85f
10:50pm 2.5ft 5s 4s 13 18 mph 1017.6mb 86f 86f
9:50pm 2.5ft 5s 4s 16 18 mph 1017.3mb 86f 86f
8:50pm 2.5ft 5s 4s 18 20 mph 1017.6mb 86f 86f
7:50pm 2ft 5s 4s 16 18 mph 1017.5mb 86f 86f